sensor_id;sensor_type;location;lat;lon;timestamp;P1;durP1;ratioP1;P2;durP2;ratioP2
63906;SDS011;50075;49.484;11.238;2022-12-11T00:00:42;47.58;;;13.27;;
63906;SDS011;50075;49.484;11.238;2022-12-11T00:03:08;44.25;;;12.57;;
63906;SDS011;50075;49.484;11.238;2022-12-11T00:05:34;47.83;;;13.32;;
63906;SDS011;50075;49.484;11.238;2022-12-11T00:08:02;49.92;;;14.07;;
63906;SDS011;50075;49.484;11.238;2022-12-11T00:10:28;51.15;;;13.70;;
63906;SDS011;50075;49.484;11.238;2022-12-11T00:12:53;42.88;;;13.02;;
63906;SDS011;50075;49.484;11.238;2022-12-11T00:15:18;47.95;;;12.50;;
63906;SDS011;50075;49.484;11.238;2022-12-11T00:17:44;46.55;;;12.32;;
63906;SDS011;50075;49.484;11.238;2022-12-11T00:20:09;47.35;;;12.40;;
63906;SDS011;50075;49.484;11.238;2022-12-11T00:22:35;39.55;;;11.98;;
63906;SDS011;50075;49.484;11.238;2022-12-11T00:25:00;51.03;;;11.93;;
63906;SDS011;50075;49.484;11.238;2022-12-11T00:27:26;43.42;;;12.75;;
63906;SDS011;50075;49.484;11.238;2022-12-11T00:29:51;54.92;;;13.98;;
63906;SDS011;50075;49.484;11.238;2022-12-11T00:32:16;49.17;;;12.35;;
63906;SDS011;50075;49.484;11.238;2022-12-11T00:34:42;47.35;;;12.88;;
63906;SDS011;50075;49.484;11.238;2022-12-11T00:37:07;42.92;;;12.55;;
63906;SDS011;50075;49.484;11.238;2022-12-11T00:39:32;45.80;;;12.07;;
63906;SDS011;50075;49.484;11.238;2022-12-11T00:41:58;46.78;;;13.25;;
63906;SDS011;50075;49.484;11.238;2022-12-11T00:44:23;47.95;;;12.38;;
63906;SDS011;50075;49.484;11.238;2022-12-11T00:46:49;39.65;;;11.82;;
63906;SDS011;50075;49.484;11.238;2022-12-11T00:49:14;40.58;;;11.05;;
63906;SDS011;50075;49.484;11.238;2022-12-11T00:51:40;45.50;;;12.85;;
63906;SDS011;50075;49.484;11.238;2022-12-11T00:54:05;45.72;;;12.73;;
63906;SDS011;50075;49.484;11.238;2022-12-11T00:56:31;55.00;;;12.32;;
63906;SDS011;50075;49.484;11.238;2022-12-11T00:58:56;49.08;;;12.02;;
63906;SDS011;50075;49.484;11.238;2022-12-11T01:01:22;55.70;;;13.32;;
63906;SDS011;50075;49.484;11.238;2022-12-11T01:03:49;43.80;;;12.00;;
63906;SDS011;50075;49.484;11.238;2022-12-11T01:06:16;44.63;;;11.82;;
63906;SDS011;50075;49.484;11.238;2022-12-11T01:08:44;53.38;;;13.45;;
63906;SDS011;50075;49.484;11.238;2022-12-11T01:11:11;41.78;;;11.10;;
63906;SDS011;50075;49.484;11.238;2022-12-11T01:13:38;43.58;;;12.10;;
63906;SDS011;50075;49.484;11.238;2022-12-11T01:16:05;45.92;;;11.57;;
63906;SDS011;50075;49.484;11.238;2022-12-11T01:18:32;46.25;;;12.38;;
63906;SDS011;50075;49.484;11.238;2022-12-11T01:20:57;50.47;;;13.05;;
63906;SDS011;50075;49.484;11.238;2022-12-11T01:23:23;44.58;;;11.98;;
63906;SDS011;50075;49.484;11.238;2022-12-11T01:25:48;45.22;;;11.93;;
63906;SDS011;50075;49.484;11.238;2022-12-11T01:28:13;37.72;;;11.63;;
63906;SDS011;50075;49.484;11.238;2022-12-11T01:30:40;41.35;;;12.30;;
63906;SDS011;50075;49.484;11.238;2022-12-11T01:33:06;54.90;;;14.35;;
63906;SDS011;50075;49.484;11.238;2022-12-11T01:35:32;49.70;;;12.70;;
63906;SDS011;50075;49.484;11.238;2022-12-11T01:37:57;42.35;;;12.50;;
63906;SDS011;50075;49.484;11.238;2022-12-11T01:40:23;40.63;;;12.15;;
63906;SDS011;50075;49.484;11.238;2022-12-11T01:42:48;46.67;;;12.25;;
63906;SDS011;50075;49.484;11.238;2022-12-11T01:47:46;50.58;;;13.98;;
63906;SDS011;50075;49.484;11.238;2022-12-11T01:50:12;51.47;;;13.35;;
63906;SDS011;50075;49.484;11.238;2022-12-11T01:52:38;44.05;;;13.05;;
63906;SDS011;50075;49.484;11.238;2022-12-11T01:55:05;44.90;;;12.27;;
63906;SDS011;50075;49.484;11.238;2022-12-11T01:57:33;47.38;;;12.25;;
63906;SDS011;50075;49.484;11.238;2022-12-11T01:59:58;48.92;;;12.55;;
63906;SDS011;50075;49.484;11.238;2022-12-11T02:02:28;53.22;;;13.13;;
63906;SDS011;50075;49.484;11.238;2022-12-11T02:04:55;53.75;;;12.57;;
63906;SDS011;50075;49.484;11.238;2022-12-11T02:07:21;53.05;;;13.55;;
63906;SDS011;50075;49.484;11.238;2022-12-11T02:09:46;48.67;;;11.63;;
63906;SDS011;50075;49.484;11.238;2022-12-11T02:12:25;51.67;;;12.80;;
63906;SDS011;50075;49.484;11.238;2022-12-11T02:20:20;40.67;;;11.13;;
63906;SDS011;50075;49.484;11.238;2022-12-11T02:25:41;51.60;;;13.60;;
63906;SDS011;50075;49.484;11.238;2022-12-11T02:36:33;46.08;;;12.07;;
63906;SDS011;50075;49.484;11.238;2022-12-11T02:39:02;46.10;;;11.90;;
63906;SDS011;50075;49.484;11.238;2022-12-11T02:41:31;43.90;;;10.70;;
63906;SDS011;50075;49.484;11.238;2022-12-11T02:43:58;48.92;;;13.30;;
63906;SDS011;50075;49.484;11.238;2022-12-11T02:46:26;48.00;;;13.23;;
63906;SDS011;50075;49.484;11.238;2022-12-11T02:48:52;54.95;;;12.80;;
63906;SDS011;50075;49.484;11.238;2022-12-11T02:51:23;45.75;;;12.43;;
63906;SDS011;50075;49.484;11.238;2022-12-11T02:53:53;55.75;;;13.68;;
63906;SDS011;50075;49.484;11.238;2022-12-11T02:56:26;52.60;;;14.13;;
63906;SDS011;50075;49.484;11.238;2022-12-11T02:58:59;52.38;;;12.70;;
63906;SDS011;50075;49.484;11.238;2022-12-11T03:01:31;49.60;;;13.50;;
63906;SDS011;50075;49.484;11.238;2022-12-11T03:03:56;55.65;;;13.98;;
63906;SDS011;50075;49.484;11.238;2022-12-11T03:06:23;47.80;;;12.75;;
63906;SDS011;50075;49.484;11.238;2022-12-11T03:08:53;49.65;;;13.75;;
63906;SDS011;50075;49.484;11.238;2022-12-11T03:11:18;44.17;;;11.77;;
63906;SDS011;50075;49.484;11.238;2022-12-11T03:13:43;44.17;;;13.10;;
63906;SDS011;50075;49.484;11.238;2022-12-11T03:16:11;48.90;;;13.38;;
63906;SDS011;50075;49.484;11.238;2022-12-11T03:21:45;44.08;;;12.20;;
63906;SDS011;50075;49.484;11.238;2022-12-11T03:27:14;50.85;;;12.55;;
63906;SDS011;50075;49.484;11.238;2022-12-11T03:29:54;55.50;;;13.43;;
63906;SDS011;50075;49.484;11.238;2022-12-11T03:32:25;48.45;;;12.27;;
63906;SDS011;50075;49.484;11.238;2022-12-11T03:35:29;56.50;;;14.15;;
63906;SDS011;50075;49.484;11.238;2022-12-11T03:37:50;46.17;;;11.55;;
63906;SDS011;50075;49.484;11.238;2022-12-11T03:40:19;45.83;;;12.15;;
63906;SDS011;50075;49.484;11.238;2022-12-11T03:42:48;40.65;;;12.18;;
63906;SDS011;50075;49.484;11.238;2022-12-11T03:45:18;48.90;;;13.27;;
63906;SDS011;50075;49.484;11.238;2022-12-11T03:47:46;46.40;;;12.43;;
63906;SDS011;50075;49.484;11.238;2022-12-11T03:50:12;43.88;;;11.90;;
63906;SDS011;50075;49.484;11.238;2022-12-11T03:52:40;50.55;;;12.95;;
63906;SDS011;50075;49.484;11.238;2022-12-11T03:55:08;44.03;;;11.75;;
63906;SDS011;50075;49.484;11.238;2022-12-11T03:57:36;58.50;;;14.00;;
63906;SDS011;50075;49.484;11.238;2022-12-11T04:00:06;43.80;;;12.98;;
63906;SDS011;50075;49.484;11.238;2022-12-11T04:02:34;44.00;;;11.52;;
63906;SDS011;50075;49.484;11.238;2022-12-11T04:04:59;51.13;;;13.65;;
63906;SDS011;50075;49.484;11.238;2022-12-11T04:07:24;40.88;;;11.88;;
63906;SDS011;50075;49.484;11.238;2022-12-11T04:09:50;52.67;;;13.13;;
63906;SDS011;50075;49.484;11.238;2022-12-11T04:12:15;41.90;;;12.18;;
63906;SDS011;50075;49.484;11.238;2022-12-11T04:14:40;47.08;;;12.20;;
63906;SDS011;50075;49.484;11.238;2022-12-11T04:17:25;41.95;;;11.05;;
63906;SDS011;50075;49.484;11.238;2022-12-11T04:20:09;44.95;;;11.70;;
63906;SDS011;50075;49.484;11.238;2022-12-11T04:22:53;43.53;;;11.73;;
63906;SDS011;50075;49.484;11.238;2022-12-11T04:25:37;41.92;;;12.13;;
63906;SDS011;50075;49.484;11.238;2022-12-11T04:28:02;56.88;;;13.18;;
63906;SDS011;50075;49.484;11.238;2022-12-11T04:30:28;49.28;;;12.52;;
63906;SDS011;50075;49.484;11.238;2022-12-11T04:32:53;39.03;;;11.35;;
63906;SDS011;50075;49.484;11.238;2022-12-11T04:35:19;44.17;;;11.88;;
63906;SDS011;50075;49.484;11.238;2022-12-11T04:37:45;44.47;;;11.80;;
63906;SDS011;50075;49.484;11.238;2022-12-11T04:40:12;46.33;;;12.85;;
63906;SDS011;50075;49.484;11.238;2022-12-11T04:42:39;48.55;;;12.85;;
63906;SDS011;50075;49.484;11.238;2022-12-11T04:45:05;48.83;;;13.10;;
63906;SDS011;50075;49.484;11.238;2022-12-11T04:47:33;45.83;;;13.10;;
63906;SDS011;50075;49.484;11.238;2022-12-11T04:49:59;41.88;;;11.70;;
63906;SDS011;50075;49.484;11.238;2022-12-11T04:52:25;41.60;;;11.68;;
63906;SDS011;50075;49.484;11.238;2022-12-11T04:54:50;37.25;;;11.07;;
63906;SDS011;50075;49.484;11.238;2022-12-11T04:57:15;51.88;;;13.32;;
63906;SDS011;50075;49.484;11.238;2022-12-11T04:59:41;50.35;;;12.98;;
63906;SDS011;50075;49.484;11.238;2022-12-11T05:02:06;44.13;;;12.80;;
63906;SDS011;50075;49.484;11.238;2022-12-11T05:04:32;46.80;;;12.25;;
63906;SDS011;50075;49.484;11.238;2022-12-11T05:06:59;41.03;;;11.05;;
63906;SDS011;50075;49.484;11.238;2022-12-11T05:09:25;49.60;;;12.63;;
63906;SDS011;50075;49.484;11.238;2022-12-11T05:11:51;45.13;;;11.88;;
63906;SDS011;50075;49.484;11.238;2022-12-11T05:14:16;41.92;;;11.55;;
63906;SDS011;50075;49.484;11.238;2022-12-11T05:16:42;48.33;;;12.48;;
63906;SDS011;50075;49.484;11.238;2022-12-11T05:19:08;45.40;;;12.52;;
63906;SDS011;50075;49.484;11.238;2022-12-11T05:21:33;51.97;;;13.32;;
63906;SDS011;50075;49.484;11.238;2022-12-11T05:23:59;35.08;;;11.15;;
63906;SDS011;50075;49.484;11.238;2022-12-11T05:26:24;47.22;;;11.57;;
63906;SDS011;50075;49.484;11.238;2022-12-11T05:28:50;51.17;;;13.07;;
63906;SDS011;50075;49.484;11.238;2022-12-11T05:31:18;45.67;;;11.80;;
63906;SDS011;50075;49.484;11.238;2022-12-11T05:33:45;56.78;;;13.73;;
63906;SDS011;50075;49.484;11.238;2022-12-11T05:36:12;46.83;;;11.35;;
63906;SDS011;50075;49.484;11.238;2022-12-11T05:38:47;43.30;;;11.45;;
63906;SDS011;50075;49.484;11.238;2022-12-11T05:41:14;47.90;;;12.25;;
63906;SDS011;50075;49.484;11.238;2022-12-11T05:43:40;51.65;;;13.52;;
63906;SDS011;50075;49.484;11.238;2022-12-11T05:46:14;40.03;;;12.10;;
63906;SDS011;50075;49.484;11.238;2022-12-11T05:48:41;44.20;;;11.65;;
63906;SDS011;50075;49.484;11.238;2022-12-11T05:51:08;47.65;;;12.57;;
63906;SDS011;50075;49.484;11.238;2022-12-11T05:53:35;54.50;;;13.98;;
63906;SDS011;50075;49.484;11.238;2022-12-11T05:56:02;43.15;;;11.68;;
63906;SDS011;50075;49.484;11.238;2022-12-11T05:58:29;43.47;;;11.45;;
63906;SDS011;50075;49.484;11.238;2022-12-11T06:00:55;51.17;;;13.02;;
63906;SDS011;50075;49.484;11.238;2022-12-11T06:03:20;44.20;;;11.63;;
63906;SDS011;50075;49.484;11.238;2022-12-11T06:05:46;46.58;;;13.85;;
63906;SDS011;50075;49.484;11.238;2022-12-11T06:08:11;47.75;;;12.00;;
63906;SDS011;50075;49.484;11.238;2022-12-11T06:10:36;40.80;;;10.30;;
63906;SDS011;50075;49.484;11.238;2022-12-11T06:13:02;39.28;;;11.13;;
63906;SDS011;50075;49.484;11.238;2022-12-11T06:15:27;37.92;;;10.13;;
63906;SDS011;50075;49.484;11.238;2022-12-11T06:17:53;38.95;;;10.60;;
63906;SDS011;50075;49.484;11.238;2022-12-11T06:20:19;44.80;;;11.48;;
63906;SDS011;50075;49.484;11.238;2022-12-11T06:22:44;40.80;;;11.25;;
63906;SDS011;50075;49.484;11.238;2022-12-11T06:25:09;42.13;;;10.60;;
63906;SDS011;50075;49.484;11.238;2022-12-11T06:27:35;47.72;;;11.95;;
63906;SDS011;50075;49.484;11.238;2022-12-11T06:30:00;42.97;;;11.80;;
63906;SDS011;50075;49.484;11.238;2022-12-11T06:32:26;43.95;;;11.65;;
63906;SDS011;50075;49.484;11.238;2022-12-11T06:34:51;40.90;;;10.80;;
63906;SDS011;50075;49.484;11.238;2022-12-11T06:37:16;41.05;;;10.65;;
63906;SDS011;50075;49.484;11.238;2022-12-11T06:39:42;36.38;;;10.73;;
63906;SDS011;50075;49.484;11.238;2022-12-11T06:42:07;44.35;;;12.40;;
63906;SDS011;50075;49.484;11.238;2022-12-11T06:44:33;49.90;;;12.32;;
63906;SDS011;50075;49.484;11.238;2022-12-11T06:46:58;40.97;;;11.95;;
63906;SDS011;50075;49.484;11.238;2022-12-11T06:49:23;44.75;;;12.85;;
63906;SDS011;50075;49.484;11.238;2022-12-11T06:51:49;47.13;;;12.30;;
63906;SDS011;50075;49.484;11.238;2022-12-11T06:54:14;44.13;;;12.23;;
63906;SDS011;50075;49.484;11.238;2022-12-11T06:56:39;43.90;;;11.98;;
63906;SDS011;50075;49.484;11.238;2022-12-11T06:59:05;50.63;;;12.80;;
63906;SDS011;50075;49.484;11.238;2022-12-11T07:01:31;47.88;;;12.43;;
63906;SDS011;50075;49.484;11.238;2022-12-11T07:03:57;45.28;;;11.15;;
63906;SDS011;50075;49.484;11.238;2022-12-11T07:06:24;41.55;;;11.40;;
63906;SDS011;50075;49.484;11.238;2022-12-11T07:08:51;51.03;;;13.40;;
63906;SDS011;50075;49.484;11.238;2022-12-11T07:11:17;42.35;;;11.98;;
63906;SDS011;50075;49.484;11.238;2022-12-11T07:13:44;50.40;;;12.93;;
63906;SDS011;50075;49.484;11.238;2022-12-11T07:16:10;49.08;;;12.52;;
63906;SDS011;50075;49.484;11.238;2022-12-11T07:18:38;52.85;;;13.38;;
63906;SDS011;50075;49.484;11.238;2022-12-11T07:21:05;46.70;;;13.05;;
63906;SDS011;50075;49.484;11.238;2022-12-11T07:23:32;49.20;;;13.82;;
63906;SDS011;50075;49.484;11.238;2022-12-11T07:26:01;47.15;;;13.73;;
63906;SDS011;50075;49.484;11.238;2022-12-11T07:28:28;40.63;;;10.73;;
63906;SDS011;50075;49.484;11.238;2022-12-11T07:30:53;53.58;;;13.50;;
63906;SDS011;50075;49.484;11.238;2022-12-11T07:33:19;48.72;;;13.10;;
63906;SDS011;50075;49.484;11.238;2022-12-11T07:35:44;39.65;;;10.73;;
63906;SDS011;50075;49.484;11.238;2022-12-11T07:38:10;63.13;;;14.48;;
63906;SDS011;50075;49.484;11.238;2022-12-11T07:40:35;48.80;;;12.80;;
63906;SDS011;50075;49.484;11.238;2022-12-11T07:43:01;48.90;;;13.15;;
63906;SDS011;50075;49.484;11.238;2022-12-11T07:45:26;44.63;;;12.48;;
63906;SDS011;50075;49.484;11.238;2022-12-11T07:47:51;45.85;;;12.52;;
63906;SDS011;50075;49.484;11.238;2022-12-11T07:50:17;43.47;;;10.38;;
63906;SDS011;50075;49.484;11.238;2022-12-11T07:52:42;40.92;;;12.10;;
63906;SDS011;50075;49.484;11.238;2022-12-11T07:55:08;52.88;;;13.75;;
63906;SDS011;50075;49.484;11.238;2022-12-11T07:57:34;39.75;;;11.15;;
63906;SDS011;50075;49.484;11.238;2022-12-11T07:59:59;45.10;;;12.23;;
63906;SDS011;50075;49.484;11.238;2022-12-11T08:02:24;44.58;;;14.05;;
63906;SDS011;50075;49.484;11.238;2022-12-11T08:04:50;37.92;;;11.98;;
63906;SDS011;50075;49.484;11.238;2022-12-11T08:07:15;41.53;;;13.10;;
63906;SDS011;50075;49.484;11.238;2022-12-11T08:09:40;43.88;;;12.40;;
63906;SDS011;50075;49.484;11.238;2022-12-11T08:12:06;36.72;;;11.18;;
63906;SDS011;50075;49.484;11.238;2022-12-11T08:14:31;39.33;;;11.82;;
63906;SDS011;50075;49.484;11.238;2022-12-11T08:16:56;36.65;;;9.88;;
63906;SDS011;50075;49.484;11.238;2022-12-11T08:19:24;36.78;;;10.75;;
63906;SDS011;50075;49.484;11.238;2022-12-11T08:21:49;41.08;;;12.50;;
63906;SDS011;50075;49.484;11.238;2022-12-11T08:24:15;36.85;;;9.30;;
63906;SDS011;50075;49.484;11.238;2022-12-11T08:26:44;40.70;;;10.57;;
63906;SDS011;50075;49.484;11.238;2022-12-11T08:29:10;36.33;;;10.13;;
63906;SDS011;50075;49.484;11.238;2022-12-11T08:31:35;39.88;;;11.60;;
63906;SDS011;50075;49.484;11.238;2022-12-11T08:34:00;35.15;;;11.02;;
63906;SDS011;50075;49.484;11.238;2022-12-11T08:36:26;34.40;;;11.10;;
63906;SDS011;50075;49.484;11.238;2022-12-11T08:38:53;41.47;;;9.55;;
63906;SDS011;50075;49.484;11.238;2022-12-11T08:41:23;34.83;;;9.90;;
63906;SDS011;50075;49.484;11.238;2022-12-11T08:43:51;42.50;;;11.80;;
63906;SDS011;50075;49.484;11.238;2022-12-11T08:46:19;37.90;;;11.30;;
63906;SDS011;50075;49.484;11.238;2022-12-11T08:48:49;44.65;;;12.70;;
63906;SDS011;50075;49.484;11.238;2022-12-11T08:51:16;38.35;;;11.23;;
63906;SDS011;50075;49.484;11.238;2022-12-11T08:53:44;36.28;;;10.43;;
63906;SDS011;50075;49.484;11.238;2022-12-11T08:56:10;45.60;;;12.10;;
63906;SDS011;50075;49.484;11.238;2022-12-11T08:58:37;48.75;;;12.18;;
63906;SDS011;50075;49.484;11.238;2022-12-11T09:01:10;42.30;;;10.95;;
63906;SDS011;50075;49.484;11.238;2022-12-11T09:03:36;31.67;;;9.02;;
63906;SDS011;50075;49.484;11.238;2022-12-11T09:06:03;36.97;;;11.13;;
63906;SDS011;50075;49.484;11.238;2022-12-11T09:08:30;38.35;;;11.68;;
63906;SDS011;50075;49.484;11.238;2022-12-11T09:10:55;40.00;;;10.77;;
63906;SDS011;50075;49.484;11.238;2022-12-11T09:13:25;36.08;;;10.32;;
63906;SDS011;50075;49.484;11.238;2022-12-11T09:15:51;39.75;;;11.38;;
63906;SDS011;50075;49.484;11.238;2022-12-11T09:18:16;32.58;;;7.78;;
63906;SDS011;50075;49.484;11.238;2022-12-11T09:20:41;42.58;;;11.57;;
63906;SDS011;50075;49.484;11.238;2022-12-11T09:23:07;40.33;;;12.15;;
63906;SDS011;50075;49.484;11.238;2022-12-11T09:25:32;43.80;;;11.98;;
63906;SDS011;50075;49.484;11.238;2022-12-11T09:27:58;44.63;;;11.13;;
63906;SDS011;50075;49.484;11.238;2022-12-11T09:30:23;45.65;;;11.65;;
63906;SDS011;50075;49.484;11.238;2022-12-11T09:32:49;42.25;;;10.80;;
63906;SDS011;50075;49.484;11.238;2022-12-11T09:35:14;37.92;;;12.02;;
63906;SDS011;50075;49.484;11.238;2022-12-11T09:37:39;45.15;;;12.60;;
63906;SDS011;50075;49.484;11.238;2022-12-11T09:40:05;32.00;;;9.13;;
63906;SDS011;50075;49.484;11.238;2022-12-11T09:42:37;34.90;;;10.75;;
63906;SDS011;50075;49.484;11.238;2022-12-11T09:45:09;30.85;;;7.05;;
63906;SDS011;50075;49.484;11.238;2022-12-11T09:50:09;73.70;;;16.90;;
63906;SDS011;50075;49.484;11.238;2022-12-11T09:55:19;49.97;;;17.00;;
63906;SDS011;50075;49.484;11.238;2022-12-11T10:00:55;55.10;;;18.33;;
63906;SDS011;50075;49.484;11.238;2022-12-11T10:03:37;43.70;;;12.07;;
63906;SDS011;50075;49.484;11.238;2022-12-11T10:11:36;38.10;;;11.88;;
63906;SDS011;50075;49.484;11.238;2022-12-11T10:14:30;35.50;;;12.10;;
63906;SDS011;50075;49.484;11.238;2022-12-11T10:19:56;40.53;;;11.88;;
63906;SDS011;50075;49.484;11.238;2022-12-11T10:22:30;30.98;;;11.23;;
63906;SDS011;50075;49.484;11.238;2022-12-11T10:24:57;32.03;;;9.48;;
63906;SDS011;50075;49.484;11.238;2022-12-11T10:27:30;34.00;;;9.98;;
63906;SDS011;50075;49.484;11.238;2022-12-11T10:30:06;33.33;;;9.93;;
63906;SDS011;50075;49.484;11.238;2022-12-11T10:35:16;32.53;;;9.50;;
63906;SDS011;50075;49.484;11.238;2022-12-11T10:38:05;25.80;;;7.63;;
63906;SDS011;50075;49.484;11.238;2022-12-11T10:40:34;34.10;;;8.90;;
63906;SDS011;50075;49.484;11.238;2022-12-11T10:43:02;29.00;;;8.98;;
63906;SDS011;50075;49.484;11.238;2022-12-11T10:45:27;32.50;;;7.85;;
63906;SDS011;50075;49.484;11.238;2022-12-11T10:48:00;45.83;;;10.48;;
63906;SDS011;50075;49.484;11.238;2022-12-11T10:50:29;36.55;;;9.88;;
63906;SDS011;50075;49.484;11.238;2022-12-11T10:52:54;32.60;;;9.10;;
63906;SDS011;50075;49.484;11.238;2022-12-11T10:55:24;33.90;;;9.43;;
63906;SDS011;50075;49.484;11.238;2022-12-11T10:57:58;33.42;;;9.95;;
63906;SDS011;50075;49.484;11.238;2022-12-11T11:00:34;29.33;;;7.72;;
63906;SDS011;50075;49.484;11.238;2022-12-11T11:03:03;30.33;;;8.27;;
63906;SDS011;50075;49.484;11.238;2022-12-11T11:05:49;24.92;;;6.68;;
63906;SDS011;50075;49.484;11.238;2022-12-11T11:08:25;26.10;;;7.38;;
63906;SDS011;50075;49.484;11.238;2022-12-11T11:10:52;37.75;;;8.60;;
63906;SDS011;50075;49.484;11.238;2022-12-11T11:13:20;27.25;;;7.50;;
63906;SDS011;50075;49.484;11.238;2022-12-11T11:16:00;31.27;;;7.38;;
63906;SDS011;50075;49.484;11.238;2022-12-11T11:18:31;27.25;;;6.55;;
63906;SDS011;50075;49.484;11.238;2022-12-11T11:20:58;30.17;;;7.65;;
63906;SDS011;50075;49.484;11.238;2022-12-11T11:23:24;25.40;;;6.30;;
63906;SDS011;50075;49.484;11.238;2022-12-11T11:25:57;41.90;;;8.85;;
63906;SDS011;50075;49.484;11.238;2022-12-11T11:28:28;23.55;;;6.45;;
63906;SDS011;50075;49.484;11.238;2022-12-11T11:30:59;36.20;;;8.10;;
63906;SDS011;50075;49.484;11.238;2022-12-11T11:33:28;27.17;;;7.40;;
63906;SDS011;50075;49.484;11.238;2022-12-11T11:35:56;28.80;;;5.95;;
63906;SDS011;50075;49.484;11.238;2022-12-11T11:38:25;34.03;;;8.38;;
63906;SDS011;50075;49.484;11.238;2022-12-11T11:41:16;35.17;;;8.38;;
63906;SDS011;50075;49.484;11.238;2022-12-11T11:43:46;27.88;;;7.22;;
63906;SDS011;50075;49.484;11.238;2022-12-11T11:54:51;24.25;;;6.57;;
63906;SDS011;50075;49.484;11.238;2022-12-11T11:57:31;32.60;;;7.00;;
63906;SDS011;50075;49.484;11.238;2022-12-11T12:00:13;20.30;;;4.00;;
63906;SDS011;50075;49.484;11.238;2022-12-11T12:02:40;34.53;;;6.80;;
63906;SDS011;50075;49.484;11.238;2022-12-11T12:05:10;30.40;;;7.88;;
63906;SDS011;50075;49.484;11.238;2022-12-11T12:07:43;31.55;;;7.35;;
63906;SDS011;50075;49.484;11.238;2022-12-11T12:10:34;31.02;;;7.13;;
63906;SDS011;50075;49.484;11.238;2022-12-11T12:13:24;25.25;;;7.00;;
63906;SDS011;50075;49.484;11.238;2022-12-11T12:15:59;32.60;;;7.50;;
63906;SDS011;50075;49.484;11.238;2022-12-11T12:26:28;33.55;;;7.90;;
63906;SDS011;50075;49.484;11.238;2022-12-11T12:40:25;27.13;;;6.55;;
63906;SDS011;50075;49.484;11.238;2022-12-11T12:43:12;31.70;;;8.32;;
63906;SDS011;50075;49.484;11.238;2022-12-11T12:48:46;38.88;;;8.77;;
63906;SDS011;50075;49.484;11.238;2022-12-11T12:51:12;30.20;;;7.97;;
63906;SDS011;50075;49.484;11.238;2022-12-11T12:53:40;32.85;;;8.75;;
63906;SDS011;50075;49.484;11.238;2022-12-11T12:56:10;34.25;;;9.20;;
63906;SDS011;50075;49.484;11.238;2022-12-11T13:06:38;29.15;;;7.38;;
63906;SDS011;50075;49.484;11.238;2022-12-11T13:09:22;27.83;;;5.57;;
63906;SDS011;50075;49.484;11.238;2022-12-11T13:11:50;25.60;;;5.38;;
63906;SDS011;50075;49.484;11.238;2022-12-11T13:16:47;25.58;;;6.65;;
63906;SDS011;50075;49.484;11.238;2022-12-11T13:21:55;38.95;;;8.80;;
63906;SDS011;50075;49.484;11.238;2022-12-11T13:29:49;32.25;;;6.95;;
63906;SDS011;50075;49.484;11.238;2022-12-11T13:34:41;27.25;;;7.32;;
63906;SDS011;50075;49.484;11.238;2022-12-11T13:39:50;28.00;;;7.30;;
63906;SDS011;50075;49.484;11.238;2022-12-11T13:42:20;27.58;;;7.78;;
63906;SDS011;50075;49.484;11.238;2022-12-11T13:44:51;30.95;;;6.53;;
63906;SDS011;50075;49.484;11.238;2022-12-11T13:47:17;31.63;;;6.78;;
63906;SDS011;50075;49.484;11.238;2022-12-11T13:49:45;42.42;;;9.00;;
63906;SDS011;50075;49.484;11.238;2022-12-11T13:52:17;25.95;;;7.03;;
63906;SDS011;50075;49.484;11.238;2022-12-11T13:54:48;35.80;;;7.13;;
63906;SDS011;50075;49.484;11.238;2022-12-11T13:57:17;30.88;;;7.57;;
63906;SDS011;50075;49.484;11.238;2022-12-11T13:59:48;36.17;;;8.32;;
63906;SDS011;50075;49.484;11.238;2022-12-11T14:02:36;34.70;;;7.13;;
63906;SDS011;50075;49.484;11.238;2022-12-11T14:05:09;29.08;;;6.28;;
63906;SDS011;50075;49.484;11.238;2022-12-11T14:12:51;39.25;;;8.77;;
63906;SDS011;50075;49.484;11.238;2022-12-11T14:15:21;27.60;;;5.75;;
63906;SDS011;50075;49.484;11.238;2022-12-11T14:17:47;39.75;;;6.85;;
63906;SDS011;50075;49.484;11.238;2022-12-11T14:20:15;34.25;;;7.43;;
63906;SDS011;50075;49.484;11.238;2022-12-11T14:22:43;32.88;;;7.75;;
63906;SDS011;50075;49.484;11.238;2022-12-11T14:25:16;34.40;;;6.63;;
63906;SDS011;50075;49.484;11.238;2022-12-11T14:27:47;29.02;;;7.32;;
63906;SDS011;50075;49.484;11.238;2022-12-11T14:30:18;29.40;;;6.45;;
63906;SDS011;50075;49.484;11.238;2022-12-11T14:32:45;30.52;;;7.25;;
63906;SDS011;50075;49.484;11.238;2022-12-11T14:35:17;34.60;;;7.75;;
63906;SDS011;50075;49.484;11.238;2022-12-11T14:37:50;29.27;;;7.00;;
63906;SDS011;50075;49.484;11.238;2022-12-11T14:40:17;31.90;;;7.60;;
63906;SDS011;50075;49.484;11.238;2022-12-11T14:42:47;39.10;;;7.93;;
63906;SDS011;50075;49.484;11.238;2022-12-11T14:45:33;39.15;;;8.02;;
63906;SDS011;50075;49.484;11.238;2022-12-11T14:48:19;29.95;;;6.97;;
63906;SDS011;50075;49.484;11.238;2022-12-11T14:50:48;37.05;;;7.38;;
63906;SDS011;50075;49.484;11.238;2022-12-11T14:53:25;33.17;;;7.20;;
63906;SDS011;50075;49.484;11.238;2022-12-11T14:56:02;27.42;;;6.47;;
63906;SDS011;50075;49.484;11.238;2022-12-11T14:58:30;33.13;;;6.47;;
63906;SDS011;50075;49.484;11.238;2022-12-11T15:01:02;32.70;;;7.28;;
63906;SDS011;50075;49.484;11.238;2022-12-11T15:03:44;26.05;;;7.03;;
63906;SDS011;50075;49.484;11.238;2022-12-11T15:09:19;29.00;;;5.43;;
63906;SDS011;50075;49.484;11.238;2022-12-11T15:11:45;37.85;;;7.35;;
63906;SDS011;50075;49.484;11.238;2022-12-11T15:14:13;25.95;;;5.00;;
63906;SDS011;50075;49.484;11.238;2022-12-11T15:16:42;36.65;;;8.05;;
63906;SDS011;50075;49.484;11.238;2022-12-11T15:19:15;32.03;;;7.88;;
63906;SDS011;50075;49.484;11.238;2022-12-11T15:21:45;28.23;;;6.18;;
63906;SDS011;50075;49.484;11.238;2022-12-11T15:24:20;27.95;;;6.20;;
63906;SDS011;50075;49.484;11.238;2022-12-11T15:26:48;32.55;;;6.22;;
63906;SDS011;50075;49.484;11.238;2022-12-11T15:29:29;27.00;;;4.40;;
63906;SDS011;50075;49.484;11.238;2022-12-11T15:32:03;37.42;;;6.65;;
63906;SDS011;50075;49.484;11.238;2022-12-11T15:34:41;25.65;;;5.88;;
63906;SDS011;50075;49.484;11.238;2022-12-11T15:37:27;29.88;;;6.18;;
63906;SDS011;50075;49.484;11.238;2022-12-11T15:39:53;31.67;;;6.03;;
63906;SDS011;50075;49.484;11.238;2022-12-11T15:45:07;33.67;;;6.55;;
63906;SDS011;50075;49.484;11.238;2022-12-11T15:47:41;32.03;;;6.53;;
63906;SDS011;50075;49.484;11.238;2022-12-11T15:50:11;34.90;;;7.05;;
63906;SDS011;50075;49.484;11.238;2022-12-11T15:52:43;29.42;;;6.03;;
63906;SDS011;50075;49.484;11.238;2022-12-11T15:55:09;39.30;;;7.28;;
63906;SDS011;50075;49.484;11.238;2022-12-11T15:57:35;28.90;;;6.30;;
63906;SDS011;50075;49.484;11.238;2022-12-11T16:00:01;34.78;;;6.88;;
63906;SDS011;50075;49.484;11.238;2022-12-11T16:02:30;35.65;;;7.82;;
63906;SDS011;50075;49.484;11.238;2022-12-11T16:04:56;35.47;;;7.53;;
63906;SDS011;50075;49.484;11.238;2022-12-11T16:07:22;37.47;;;8.23;;
63906;SDS011;50075;49.484;11.238;2022-12-11T16:09:50;55.70;;;8.88;;
63906;SDS011;50075;49.484;11.238;2022-12-11T16:12:15;50.50;;;9.40;;